Nearby METAR Reports

 

KCMH - Columbus, Ohio, USA
Distance from station: SW 5mi, 8km
Updated: Wed, 18-Sep-2019 12:51pm EDT
Clear
Clear
 Wind from ESE
Wind: ESE 10 mph , 17 km/h
Temperature: 81°F , 27°C
Dew Point: 52°F , 11°C
Humidity: 37%
Barometer: 30.16 inHg , 1021.3 hPa
Clouds: Clear
Visibility: 10 miles , 16 km
2019/09/18 16:51 KCMH 181651Z 11009KT 10SM CLR 27/11 A3016 RMK AO2 SLP207 T02670106
KOSU - Columbus/St Univ, Ohio, USA
Distance from station: W 14mi, 23km
Updated: Wed, 18-Sep-2019 12:53pm EDT
Clear
Clear
 Wind from ESE
Wind: ESE 14 mph , 22 km/h
Temperature: 81°F , 27°C
Dew Point: 54°F , 12°C
Humidity: 39%
Barometer: 30.16 inHg , 1021.3 hPa
Clouds: Clear
Visibility: 10 miles , 16 km
2019/09/18 16:53 KOSU 181653Z 11012KT 10SM CLR 27/12 A3016 RMK AO2 SLP209 T02670122
 
KLCK - Rickenbacker Ang, Ohio, USA
Distance from station: SSW 17mi, 27km
Updated: Wed, 18-Sep-2019 1:35pm EDT
Clear
Clear
 Wind from E
Wind: E 12 mph , 19 km/h
Temperature: 81°F , 27°C
Dew Point: 52°F , 11°C
Humidity: 37%
Barometer: 30.14 inHg , 1020.7 hPa
Clouds: Clear
Visibility: 10 miles , 16 km
2019/09/18 17:35 KLCK 181735Z AUTO 08010KT 10SM CLR 27/11 A3014 RMK AO2 T02690108
KVTA - Newark, Ohio, USA
Distance from station: E 19mi, 30km
Updated: Wed, 18-Sep-2019 12:54pm EDT
Clear
Clear
 Wind from E
Wind: E 9 mph , 15 km/h
Temperature: 79°F , 26°C
Dew Point: 52°F , 11°C
Humidity: 39%
Barometer: 30.17 inHg , 1021.7 hPa
Clouds: Clear
Visibility: 10 miles , 16 km
2019/09/18 16:54 KVTA 181654Z AUTO 10008KT 060V140 10SM CLR 26/11 A3017 RMK AO2 SLP210 T02610111
 
KTZR - Columbus/Bolton, Ohio, USA
Distance from station: WSW 20mi, 31km
Updated: Wed, 18-Sep-2019 12:47pm EDT
Clear
Clear
 Wind from E
Wind: E 9 mph , 15 km/h
Temperature: 79°F , 26°C
Dew Point: 57°F , 14°C
Humidity: 48%
Barometer: 30.17 inHg , 1021.7 hPa
Clouds: Clear
Visibility: 10 miles , 16 km
2019/09/18 16:47 KTZR 181647Z 08008KT 10SM SKC 26/14 A3017
KLHQ - Lancaster, Ohio, USA
Distance from station: SSE 22mi, 36km
Updated: Wed, 18-Sep-2019 12:53pm EDT
Clear
Clear
 Wind from ENE
Wind: ENE 12 mph , 19 km/h
Temperature: 81°F , 27°C
Dew Point: 54°F , 12°C
Humidity: 39%
Barometer: 30.16 inHg , 1021.3 hPa
Clouds: Clear
Visibility: 10 miles , 16 km
2019/09/18 16:53 KLHQ 181653Z AUTO 06010KT 10SM CLR 27/12 A3016 RMK AO2 SLP207 T02670122
 
KDLZ - Delaware, Ohio, USA
Distance from station: NW 23mi, 36km
Updated: Wed, 18-Sep-2019 1:35pm EDT
Clear
Clear
 Wind from E
Wind: E 8 mph , 13 km/h
Temperature: 81°F , 27°C
Dew Point: 50°F , 10°C
Humidity: 34%
Barometer: 30.17 inHg , 1021.7 hPa
Clouds: Clear
Visibility: 10 miles , 16 km
2019/09/18 17:35 KDLZ 181735Z AUTO 09007KT 064V154 10SM CLR 27/10 A3017 RMK AO2
K4I3 - Mt Vernon/Knox, Ohio, USA
Distance from station: NE 25mi, 40km
Updated: Wed, 18-Sep-2019 1:38pm EDT
Clear
Clear
 Wind from ENE
Wind: ENE 8 mph , 13 km/h
Temperature: 79°F , 26°C
Dew Point: 52°F , 11°C
Humidity: 39%
Barometer: 30.20 inHg , 1022.7 hPa
Clouds: Clear
Visibility: 10 miles , 16 km
2019/09/18 17:38 K4I3 181738Z AUTO 06007KT 050V140 10SM CLR 26/11 A3020 RMK AO2
 
KMRT - Marysville, Ohio, USA
Distance from station: WNW 30mi, 49km
Updated: Wed, 18-Sep-2019 1:38pm EDT
Clear
Clear
 Wind from SE
Wind: SE 7 mph , 11 km/h
Temperature: 81°F , 27°C
Dew Point: 50°F , 10°C
Humidity: 34%
Barometer: 30.17 inHg , 1021.7 hPa
Clouds: Clear
Visibility: 10 miles , 16 km
2019/09/18 17:38 KMRT 181738Z AUTO 13006KT 10SM CLR 27/10 A3017 RMK AO2 T02710104
KMNN - Marion, Ohio, USA
Distance from station: NNW 41mi, 67km
Updated: Wed, 18-Sep-2019 12:53pm EDT
Clear
Clear
 Wind from SE
Wind: SE 13 mph , 20 km/h, Gust: 18 mph , 30 km/h
Temperature: 79°F , 26°C
Dew Point: 52°F , 11°C
Humidity: 39%
Barometer: 30.19 inHg , 1022.4 hPa
Clouds: Clear
Visibility: 10 miles , 16 km
2019/09/18 16:53 KMNN 181653Z AUTO 14011G16KT 10SM CLR 26/11 A3019 RMK AO2 SLP221 T02560106 $
 
KZZV - Zanesville, Ohio, USA
Distance from station: E 49mi, 79km
Updated: Wed, 18-Sep-2019 12:53pm EDT
Clear
Clear
 Wind from E
Wind: E 12 mph , 19 km/h
Temperature: 77°F , 25°C
Dew Point: 50°F , 10°C
Humidity: 39%
Barometer: 30.18 inHg , 1022 hPa
Clouds: Clear
Visibility: 10 miles , 16 km
2019/09/18 16:53 KZZV 181653Z AUTO 10010KT 10SM CLR 25/10 A3018 RMK AO2 SLP213 T02500100